sensor_id;sensor_type;location;lat;lon;timestamp;P1;durP1;ratioP1;P2;durP2;ratioP2
3704;SDS011;1868;48.918;9.438;2023-04-29T00:00:30;1.97;;;1.87;;
3704;SDS011;1868;48.918;9.438;2023-04-29T00:03:09;2.10;;;2.00;;
3704;SDS011;1868;48.918;9.438;2023-04-29T00:05:41;2.63;;;2.43;;
3704;SDS011;1868;48.918;9.438;2023-04-29T00:08:13;3.10;;;2.37;;
3704;SDS011;1868;48.918;9.438;2023-04-29T00:11:00;2.53;;;2.30;;
3704;SDS011;1868;48.918;9.438;2023-04-29T00:13:58;4.30;;;3.10;;
3704;SDS011;1868;48.918;9.438;2023-04-29T00:16:31;3.20;;;2.90;;
3704;SDS011;1868;48.918;9.438;2023-04-29T00:19:30;2.23;;;2.13;;
3704;SDS011;1868;48.918;9.438;2023-04-29T00:22:30;1.80;;;1.70;;
3704;SDS011;1868;48.918;9.438;2023-04-29T00:28:23;4.63;;;2.30;;
3704;SDS011;1868;48.918;9.438;2023-04-29T00:30:55;1.63;;;1.63;;
3704;SDS011;1868;48.918;9.438;2023-04-29T00:33:44;1.40;;;1.40;;
3704;SDS011;1868;48.918;9.438;2023-04-29T00:36:19;2.83;;;2.10;;
3704;SDS011;1868;48.918;9.438;2023-04-29T00:38:49;22.67;;;3.20;;
3704;SDS011;1868;48.918;9.438;2023-04-29T00:41:35;1.80;;;1.70;;
3704;SDS011;1868;48.918;9.438;2023-04-29T00:44:07;2.30;;;2.17;;
3704;SDS011;1868;48.918;9.438;2023-04-29T00:46:37;1.53;;;1.53;;
3704;SDS011;1868;48.918;9.438;2023-04-29T00:49:10;2.37;;;2.17;;
3704;SDS011;1868;48.918;9.438;2023-04-29T00:51:42;1.90;;;1.80;;
3704;SDS011;1868;48.918;9.438;2023-04-29T00:54:15;1.53;;;1.43;;
3704;SDS011;1868;48.918;9.438;2023-04-29T00:56:47;1.53;;;1.53;;
3704;SDS011;1868;48.918;9.438;2023-04-29T00:59:18;1.17;;;1.17;;
3704;SDS011;1868;48.918;9.438;2023-04-29T01:01:49;1.30;;;1.30;;
3704;SDS011;1868;48.918;9.438;2023-04-29T01:04:21;1.80;;;1.73;;
3704;SDS011;1868;48.918;9.438;2023-04-29T01:07:08;1.50;;;1.50;;
3704;SDS011;1868;48.918;9.438;2023-04-29T01:09:50;1.80;;;1.70;;
3704;SDS011;1868;48.918;9.438;2023-04-29T01:12:36;2.40;;;2.20;;
3704;SDS011;1868;48.918;9.438;2023-04-29T01:15:28;2.17;;;2.07;;
3704;SDS011;1868;48.918;9.438;2023-04-29T01:18:07;4.10;;;2.03;;
3704;SDS011;1868;48.918;9.438;2023-04-29T01:20:40;1.67;;;1.57;;
3704;SDS011;1868;48.918;9.438;2023-04-29T01:23:10;1.93;;;1.83;;
3704;SDS011;1868;48.918;9.438;2023-04-29T01:25:53;2.17;;;2.07;;
3704;SDS011;1868;48.918;9.438;2023-04-29T01:29:26;2.23;;;2.03;;
3704;SDS011;1868;48.918;9.438;2023-04-29T01:32:12;1.83;;;1.73;;
3704;SDS011;1868;48.918;9.438;2023-04-29T01:35:03;2.10;;;1.60;;
3704;SDS011;1868;48.918;9.438;2023-04-29T01:37:47;1.30;;;1.20;;
3704;SDS011;1868;48.918;9.438;2023-04-29T01:40:24;2.30;;;2.10;;
3704;SDS011;1868;48.918;9.438;2023-04-29T01:43:12;1.20;;;1.20;;
3704;SDS011;1868;48.918;9.438;2023-04-29T01:45:47;1.40;;;1.40;;
3704;SDS011;1868;48.918;9.438;2023-04-29T01:48:17;1.40;;;1.13;;
3704;SDS011;1868;48.918;9.438;2023-04-29T01:50:46;1.20;;;1.20;;
3704;SDS011;1868;48.918;9.438;2023-04-29T01:53:16;1.27;;;1.27;;
3704;SDS011;1868;48.918;9.438;2023-04-29T01:55:49;1.47;;;1.47;;
3704;SDS011;1868;48.918;9.438;2023-04-29T01:58:31;1.10;;;1.10;;
3704;SDS011;1868;48.918;9.438;2023-04-29T02:01:37;1.20;;;1.20;;
3704;SDS011;1868;48.918;9.438;2023-04-29T02:04:25;1.20;;;1.20;;
3704;SDS011;1868;48.918;9.438;2023-04-29T02:06:55;1.27;;;1.27;;
3704;SDS011;1868;48.918;9.438;2023-04-29T02:09:30;1.03;;;1.03;;
3704;SDS011;1868;48.918;9.438;2023-04-29T02:12:07;1.23;;;1.23;;
3704;SDS011;1868;48.918;9.438;2023-04-29T02:14:38;1.40;;;1.40;;
3704;SDS011;1868;48.918;9.438;2023-04-29T02:17:09;1.00;;;1.00;;
3704;SDS011;1868;48.918;9.438;2023-04-29T02:19:40;1.40;;;1.40;;
3704;SDS011;1868;48.918;9.438;2023-04-29T02:22:09;1.20;;;1.20;;
3704;SDS011;1868;48.918;9.438;2023-04-29T02:24:40;1.67;;;1.33;;
3704;SDS011;1868;48.918;9.438;2023-04-29T02:27:13;1.47;;;1.47;;
3704;SDS011;1868;48.918;9.438;2023-04-29T02:29:48;1.50;;;1.50;;
3704;SDS011;1868;48.918;9.438;2023-04-29T02:32:17;1.20;;;1.20;;
3704;SDS011;1868;48.918;9.438;2023-04-29T02:34:48;0.97;;;0.97;;
3704;SDS011;1868;48.918;9.438;2023-04-29T02:37:17;1.20;;;1.20;;
3704;SDS011;1868;48.918;9.438;2023-04-29T02:41:08;1.20;;;1.20;;
3704;SDS011;1868;48.918;9.438;2023-04-29T02:57:54;1.37;;;1.30;;
3704;SDS011;1868;48.918;9.438;2023-04-29T03:01:12;1.20;;;1.20;;
3704;SDS011;1868;48.918;9.438;2023-04-29T03:04:31;2.27;;;2.07;;
3704;SDS011;1868;48.918;9.438;2023-04-29T03:07:44;2.10;;;2.00;;
3704;SDS011;1868;48.918;9.438;2023-04-29T03:11:00;9.17;;;2.30;;
3704;SDS011;1868;48.918;9.438;2023-04-29T03:13:31;3.27;;;2.97;;
3704;SDS011;1868;48.918;9.438;2023-04-29T03:16:05;2.77;;;2.57;;
3704;SDS011;1868;48.918;9.438;2023-04-29T03:18:48;4.40;;;2.80;;
3704;SDS011;1868;48.918;9.438;2023-04-29T03:21:19;2.70;;;2.50;;
3704;SDS011;1868;48.918;9.438;2023-04-29T03:23:50;2.60;;;2.40;;
3704;SDS011;1868;48.918;9.438;2023-04-29T03:26:30;2.10;;;2.00;;
3704;SDS011;1868;48.918;9.438;2023-04-29T03:29:04;1.97;;;1.87;;
3704;SDS011;1868;48.918;9.438;2023-04-29T03:31:33;6.23;;;1.93;;
3704;SDS011;1868;48.918;9.438;2023-04-29T03:34:04;2.10;;;2.00;;
3704;SDS011;1868;48.918;9.438;2023-04-29T03:36:37;2.40;;;1.97;;
3704;SDS011;1868;48.918;9.438;2023-04-29T03:39:06;1.90;;;1.80;;
3704;SDS011;1868;48.918;9.438;2023-04-29T03:41:40;1.63;;;1.53;;
3704;SDS011;1868;48.918;9.438;2023-04-29T03:44:09;1.87;;;1.77;;
3704;SDS011;1868;48.918;9.438;2023-04-29T03:46:42;2.00;;;1.90;;
3704;SDS011;1868;48.918;9.438;2023-04-29T03:49:40;2.00;;;1.90;;
3704;SDS011;1868;48.918;9.438;2023-04-29T03:52:11;2.50;;;2.30;;
3704;SDS011;1868;48.918;9.438;2023-04-29T03:54:47;1.63;;;1.53;;
3704;SDS011;1868;48.918;9.438;2023-04-29T04:00:57;2.47;;;2.30;;
3704;SDS011;1868;48.918;9.438;2023-04-29T04:03:44;2.50;;;2.30;;
3704;SDS011;1868;48.918;9.438;2023-04-29T04:06:43;2.83;;;2.13;;
3704;SDS011;1868;48.918;9.438;2023-04-29T04:09:35;2.07;;;1.97;;
3704;SDS011;1868;48.918;9.438;2023-04-29T04:12:08;2.10;;;2.00;;
3704;SDS011;1868;48.918;9.438;2023-04-29T04:17:57;3.00;;;2.73;;
3704;SDS011;1868;48.918;9.438;2023-04-29T04:20:28;3.30;;;2.50;;
3704;SDS011;1868;48.918;9.438;2023-04-29T04:22:57;3.20;;;2.90;;
3704;SDS011;1868;48.918;9.438;2023-04-29T04:25:28;2.90;;;2.70;;
3704;SDS011;1868;48.918;9.438;2023-04-29T04:28:45;2.13;;;2.03;;
3704;SDS011;1868;48.918;9.438;2023-04-29T04:35:00;1.70;;;1.60;;
3704;SDS011;1868;48.918;9.438;2023-04-29T04:38:13;1.87;;;1.80;;
3704;SDS011;1868;48.918;9.438;2023-04-29T04:41:15;1.77;;;1.67;;
3704;SDS011;1868;48.918;9.438;2023-04-29T04:44:30;1.67;;;1.57;;
3704;SDS011;1868;48.918;9.438;2023-04-29T04:47:06;1.40;;;1.40;;
3704;SDS011;1868;48.918;9.438;2023-04-29T04:53:36;1.50;;;1.50;;
3704;SDS011;1868;48.918;9.438;2023-04-29T04:56:21;1.60;;;1.50;;
3704;SDS011;1868;48.918;9.438;2023-04-29T04:58:53;1.37;;;1.37;;
3704;SDS011;1868;48.918;9.438;2023-04-29T05:01:38;1.90;;;1.80;;
3704;SDS011;1868;48.918;9.438;2023-04-29T05:04:08;1.63;;;1.53;;
3704;SDS011;1868;48.918;9.438;2023-04-29T05:06:48;3.80;;;1.87;;
3704;SDS011;1868;48.918;9.438;2023-04-29T05:09:54;1.87;;;1.77;;
3704;SDS011;1868;48.918;9.438;2023-04-29T05:12:23;2.30;;;2.20;;
3704;SDS011;1868;48.918;9.438;2023-04-29T05:14:57;2.27;;;2.07;;
3704;SDS011;1868;48.918;9.438;2023-04-29T05:17:27;1.90;;;1.80;;
3704;SDS011;1868;48.918;9.438;2023-04-29T05:19:59;2.47;;;2.17;;
3704;SDS011;1868;48.918;9.438;2023-04-29T05:22:35;3.43;;;2.83;;
3704;SDS011;1868;48.918;9.438;2023-04-29T05:25:04;2.43;;;2.33;;
3704;SDS011;1868;48.918;9.438;2023-04-29T05:27:35;3.10;;;2.77;;
3704;SDS011;1868;48.918;9.438;2023-04-29T05:30:09;2.43;;;2.33;;
3704;SDS011;1868;48.918;9.438;2023-04-29T05:32:38;4.50;;;2.57;;
3704;SDS011;1868;48.918;9.438;2023-04-29T05:35:12;2.57;;;2.43;;
3704;SDS011;1868;48.918;9.438;2023-04-29T05:37:43;4.47;;;2.67;;
3704;SDS011;1868;48.918;9.438;2023-04-29T05:40:26;5.07;;;3.60;;
3704;SDS011;1868;48.918;9.438;2023-04-29T05:43:10;5.70;;;3.57;;
3704;SDS011;1868;48.918;9.438;2023-04-29T05:45:40;5.60;;;4.10;;
3704;SDS011;1868;48.918;9.438;2023-04-29T05:48:14;6.27;;;5.00;;
3704;SDS011;1868;48.918;9.438;2023-04-29T05:50:43;4.63;;;4.00;;
3704;SDS011;1868;48.918;9.438;2023-04-29T05:53:15;10.50;;;4.77;;
3704;SDS011;1868;48.918;9.438;2023-04-29T05:55:44;4.70;;;4.33;;
3704;SDS011;1868;48.918;9.438;2023-04-29T05:58:19;6.27;;;5.60;;
3704;SDS011;1868;48.918;9.438;2023-04-29T06:00:48;7.97;;;4.10;;
3704;SDS011;1868;48.918;9.438;2023-04-29T06:03:21;4.93;;;4.43;;
3704;SDS011;1868;48.918;9.438;2023-04-29T06:06:05;3.87;;;3.57;;
3704;SDS011;1868;48.918;9.438;2023-04-29T06:08:56;7.93;;;4.70;;
3704;SDS011;1868;48.918;9.438;2023-04-29T06:11:30;4.80;;;4.40;;
3704;SDS011;1868;48.918;9.438;2023-04-29T06:14:00;5.13;;;4.63;;
3704;SDS011;1868;48.918;9.438;2023-04-29T06:16:30;6.00;;;5.37;;
3704;SDS011;1868;48.918;9.438;2023-04-29T06:19:00;5.00;;;4.60;;
3704;SDS011;1868;48.918;9.438;2023-04-29T06:21:29;6.90;;;5.90;;
3704;SDS011;1868;48.918;9.438;2023-04-29T06:24:01;6.20;;;5.00;;
3704;SDS011;1868;48.918;9.438;2023-04-29T06:26:31;4.83;;;4.53;;
3704;SDS011;1868;48.918;9.438;2023-04-29T06:29:01;9.50;;;5.37;;
3704;SDS011;1868;48.918;9.438;2023-04-29T06:31:30;7.60;;;5.47;;
3704;SDS011;1868;48.918;9.438;2023-04-29T06:34:02;5.23;;;4.80;;
3704;SDS011;1868;48.918;9.438;2023-04-29T06:36:58;8.37;;;4.77;;
3704;SDS011;1868;48.918;9.438;2023-04-29T06:39:49;5.63;;;4.30;;
3704;SDS011;1868;48.918;9.438;2023-04-29T06:42:39;5.07;;;4.67;;
3704;SDS011;1868;48.918;9.438;2023-04-29T06:45:47;5.47;;;4.97;;
3704;SDS011;1868;48.918;9.438;2023-04-29T06:48:20;4.23;;;3.93;;
3704;SDS011;1868;48.918;9.438;2023-04-29T06:50:49;5.93;;;5.43;;
3704;SDS011;1868;48.918;9.438;2023-04-29T06:53:20;5.70;;;5.10;;
3704;SDS011;1868;48.918;9.438;2023-04-29T06:55:51;10.53;;;9.43;;
3704;SDS011;1868;48.918;9.438;2023-04-29T06:58:20;5.90;;;5.33;;
3704;SDS011;1868;48.918;9.438;2023-04-29T07:00:53;5.00;;;4.60;;
3704;SDS011;1868;48.918;9.438;2023-04-29T07:03:22;5.33;;;4.60;;
3704;SDS011;1868;48.918;9.438;2023-04-29T07:05:51;4.30;;;4.00;;
3704;SDS011;1868;48.918;9.438;2023-04-29T07:08:22;4.70;;;4.10;;
3704;SDS011;1868;48.918;9.438;2023-04-29T07:10:56;3.13;;;3.03;;
3704;SDS011;1868;48.918;9.438;2023-04-29T07:13:27;4.40;;;3.40;;
3704;SDS011;1868;48.918;9.438;2023-04-29T07:16:04;4.60;;;3.23;;
3704;SDS011;1868;48.918;9.438;2023-04-29T07:18:42;3.20;;;2.90;;
3704;SDS011;1868;48.918;9.438;2023-04-29T07:21:12;4.87;;;2.47;;
3704;SDS011;1868;48.918;9.438;2023-04-29T07:23:41;4.63;;;3.20;;
3704;SDS011;1868;48.918;9.438;2023-04-29T07:26:12;3.67;;;3.40;;
3704;SDS011;1868;48.918;9.438;2023-04-29T07:28:44;3.63;;;2.40;;
3704;SDS011;1868;48.918;9.438;2023-04-29T07:31:13;2.30;;;2.13;;
3704;SDS011;1868;48.918;9.438;2023-04-29T07:33:43;2.10;;;2.00;;
3704;SDS011;1868;48.918;9.438;2023-04-29T07:36:12;6.73;;;2.60;;
3704;SDS011;1868;48.918;9.438;2023-04-29T07:38:48;2.73;;;2.00;;
3704;SDS011;1868;48.918;9.438;2023-04-29T07:41:18;2.90;;;2.70;;
3704;SDS011;1868;48.918;9.438;2023-04-29T07:43:52;2.40;;;2.27;;
3704;SDS011;1868;48.918;9.438;2023-04-29T07:46:22;7.50;;;2.47;;
3704;SDS011;1868;48.918;9.438;2023-04-29T07:48:55;2.33;;;2.23;;
3704;SDS011;1868;48.918;9.438;2023-04-29T07:51:25;2.80;;;2.20;;
3704;SDS011;1868;48.918;9.438;2023-04-29T07:53:57;3.40;;;2.50;;
3704;SDS011;1868;48.918;9.438;2023-04-29T07:56:28;2.80;;;2.60;;
3704;SDS011;1868;48.918;9.438;2023-04-29T07:59:00;2.30;;;2.10;;
3704;SDS011;1868;48.918;9.438;2023-04-29T08:01:36;3.30;;;2.73;;
3704;SDS011;1868;48.918;9.438;2023-04-29T08:04:18;2.60;;;2.40;;
3704;SDS011;1868;48.918;9.438;2023-04-29T08:07:08;4.40;;;2.47;;
3704;SDS011;1868;48.918;9.438;2023-04-29T08:09:46;2.33;;;2.23;;
3704;SDS011;1868;48.918;9.438;2023-04-29T08:12:32;2.50;;;2.30;;
3704;SDS011;1868;48.918;9.438;2023-04-29T08:15:07;2.13;;;1.97;;
3704;SDS011;1868;48.918;9.438;2023-04-29T08:17:39;3.20;;;2.93;;
3704;SDS011;1868;48.918;9.438;2023-04-29T08:20:10;3.17;;;2.97;;
3704;SDS011;1868;48.918;9.438;2023-04-29T08:22:48;2.33;;;2.23;;
3704;SDS011;1868;48.918;9.438;2023-04-29T08:25:21;6.43;;;2.30;;
3704;SDS011;1868;48.918;9.438;2023-04-29T08:27:59;4.33;;;1.80;;
3704;SDS011;1868;48.918;9.438;2023-04-29T08:30:36;3.83;;;3.03;;
3704;SDS011;1868;48.918;9.438;2023-04-29T08:33:07;3.30;;;2.67;;
3704;SDS011;1868;48.918;9.438;2023-04-29T08:35:39;18.30;;;14.90;;
3704;SDS011;1868;48.918;9.438;2023-04-29T08:38:08;3.23;;;2.90;;
3704;SDS011;1868;48.918;9.438;2023-04-29T08:40:41;3.07;;;2.83;;
3704;SDS011;1868;48.918;9.438;2023-04-29T08:43:17;2.30;;;2.20;;
3704;SDS011;1868;48.918;9.438;2023-04-29T08:45:47;2.60;;;2.37;;
3704;SDS011;1868;48.918;9.438;2023-04-29T08:48:18;2.60;;;2.40;;
3704;SDS011;1868;48.918;9.438;2023-04-29T08:50:49;3.67;;;2.40;;
3704;SDS011;1868;48.918;9.438;2023-04-29T08:53:19;4.20;;;2.60;;
3704;SDS011;1868;48.918;9.438;2023-04-29T08:55:48;6.03;;;2.60;;
3704;SDS011;1868;48.918;9.438;2023-04-29T08:58:58;2.63;;;2.43;;
3704;SDS011;1868;48.918;9.438;2023-04-29T09:01:34;2.60;;;1.80;;
3704;SDS011;1868;48.918;9.438;2023-04-29T09:04:07;2.00;;;1.90;;
3704;SDS011;1868;48.918;9.438;2023-04-29T09:07:02;3.80;;;2.37;;
3704;SDS011;1868;48.918;9.438;2023-04-29T09:09:54;2.40;;;2.20;;
3704;SDS011;1868;48.918;9.438;2023-04-29T09:12:51;2.67;;;2.20;;
3704;SDS011;1868;48.918;9.438;2023-04-29T09:15:30;2.23;;;2.10;;
3704;SDS011;1868;48.918;9.438;2023-04-29T09:18:19;2.87;;;2.67;;
3704;SDS011;1868;48.918;9.438;2023-04-29T09:21:16;2.40;;;2.30;;
3704;SDS011;1868;48.918;9.438;2023-04-29T09:23:52;3.73;;;2.50;;
3704;SDS011;1868;48.918;9.438;2023-04-29T09:26:32;2.00;;;1.90;;
3704;SDS011;1868;48.918;9.438;2023-04-29T09:41:28;4.53;;;3.00;;
3704;SDS011;1868;48.918;9.438;2023-04-29T09:44:04;5.57;;;2.97;;
3704;SDS011;1868;48.918;9.438;2023-04-29T09:52:41;2.83;;;2.63;;
3704;SDS011;1868;48.918;9.438;2023-04-29T09:58:32;2.77;;;2.57;;
3704;SDS011;1868;48.918;9.438;2023-04-29T10:01:20;2.37;;;2.00;;
3704;SDS011;1868;48.918;9.438;2023-04-29T10:04:04;4.47;;;2.30;;
3704;SDS011;1868;48.918;9.438;2023-04-29T10:06:48;2.10;;;1.97;;
3704;SDS011;1868;48.918;9.438;2023-04-29T10:15:32;2.80;;;2.70;;
3704;SDS011;1868;48.918;9.438;2023-04-29T10:18:36;2.77;;;2.53;;
3704;SDS011;1868;48.918;9.438;2023-04-29T10:24:30;9.33;;;3.90;;
3704;SDS011;1868;48.918;9.438;2023-04-29T10:27:05;3.90;;;3.40;;
3704;SDS011;1868;48.918;9.438;2023-04-29T10:29:37;5.47;;;3.70;;
3704;SDS011;1868;48.918;9.438;2023-04-29T10:35:27;6.63;;;3.90;;
3704;SDS011;1868;48.918;9.438;2023-04-29T10:41:19;2.70;;;2.47;;
3704;SDS011;1868;48.918;9.438;2023-04-29T10:43:51;3.00;;;2.80;;
3704;SDS011;1868;48.918;9.438;2023-04-29T10:46:22;3.30;;;3.00;;
3704;SDS011;1868;48.918;9.438;2023-04-29T11:12:25;5.33;;;3.50;;
3704;SDS011;1868;48.918;9.438;2023-04-29T11:14:56;3.10;;;2.80;;
3704;SDS011;1868;48.918;9.438;2023-04-29T11:21:32;4.20;;;2.03;;
3704;SDS011;1868;48.918;9.438;2023-04-29T11:24:03;3.60;;;2.83;;
3704;SDS011;1868;48.918;9.438;2023-04-29T11:26:35;3.93;;;2.40;;
3704;SDS011;1868;48.918;9.438;2023-04-29T11:29:12;4.97;;;2.53;;
3704;SDS011;1868;48.918;9.438;2023-04-29T11:31:41;5.30;;;3.13;;
3704;SDS011;1868;48.918;9.438;2023-04-29T11:34:33;2.37;;;2.17;;
3704;SDS011;1868;48.918;9.438;2023-04-29T11:37:05;4.63;;;2.87;;
3704;SDS011;1868;48.918;9.438;2023-04-29T11:39:34;4.90;;;3.13;;
3704;SDS011;1868;48.918;9.438;2023-04-29T11:42:25;3.63;;;2.30;;
3704;SDS011;1868;48.918;9.438;2023-04-29T11:56:42;3.60;;;3.30;;
3704;SDS011;1868;48.918;9.438;2023-04-29T11:59:30;6.97;;;3.87;;
3704;SDS011;1868;48.918;9.438;2023-04-29T12:11:30;3.53;;;3.10;;
3704;SDS011;1868;48.918;9.438;2023-04-29T12:14:01;3.30;;;3.00;;
3704;SDS011;1868;48.918;9.438;2023-04-29T12:17:04;7.13;;;5.93;;
3704;SDS011;1868;48.918;9.438;2023-04-29T12:19:43;3.50;;;3.20;;
3704;SDS011;1868;48.918;9.438;2023-04-29T12:50:05;4.70;;;4.30;;
3704;SDS011;1868;48.918;9.438;2023-04-29T12:52:36;4.80;;;4.00;;
3704;SDS011;1868;48.918;9.438;2023-04-29T13:11:44;4.50;;;4.10;;
3704;SDS011;1868;48.918;9.438;2023-04-29T13:14:24;4.07;;;3.30;;
3704;SDS011;1868;48.918;9.438;2023-04-29T13:20:20;3.90;;;3.33;;
3704;SDS011;1868;48.918;9.438;2023-04-29T13:22:54;3.60;;;3.30;;
3704;SDS011;1868;48.918;9.438;2023-04-29T13:25:27;4.60;;;4.20;;
3704;SDS011;1868;48.918;9.438;2023-04-29T13:27:59;4.50;;;4.17;;
3704;SDS011;1868;48.918;9.438;2023-04-29T13:30:29;3.87;;;3.57;;
3704;SDS011;1868;48.918;9.438;2023-04-29T13:33:01;5.90;;;5.37;;
3704;SDS011;1868;48.918;9.438;2023-04-29T13:35:40;5.73;;;4.47;;
3704;SDS011;1868;48.918;9.438;2023-04-29T13:38:11;4.30;;;3.90;;
3704;SDS011;1868;48.918;9.438;2023-04-29T13:47:36;4.23;;;3.77;;
3704;SDS011;1868;48.918;9.438;2023-04-29T13:50:26;4.63;;;4.10;;
3704;SDS011;1868;48.918;9.438;2023-04-29T13:53:01;5.50;;;5.00;;
3704;SDS011;1868;48.918;9.438;2023-04-29T14:21:55;6.30;;;5.70;;
3704;SDS011;1868;48.918;9.438;2023-04-29T14:24:25;8.13;;;4.70;;
3704;SDS011;1868;48.918;9.438;2023-04-29T14:26:57;7.07;;;5.73;;
3704;SDS011;1868;48.918;9.438;2023-04-29T14:29:27;8.37;;;5.43;;
3704;SDS011;1868;48.918;9.438;2023-04-29T14:31:58;6.70;;;6.00;;
3704;SDS011;1868;48.918;9.438;2023-04-29T14:34:27;8.00;;;6.90;;
3704;SDS011;1868;48.918;9.438;2023-04-29T14:36:58;17.13;;;11.83;;
3704;SDS011;1868;48.918;9.438;2023-04-29T14:39:27;22.90;;;15.60;;
3704;SDS011;1868;48.918;9.438;2023-04-29T14:41:56;11.07;;;8.60;;
3704;SDS011;1868;48.918;9.438;2023-04-29T14:45:09;8.20;;;5.93;;
3704;SDS011;1868;48.918;9.438;2023-04-29T14:48:36;10.60;;;7.93;;
3704;SDS011;1868;48.918;9.438;2023-04-29T14:51:10;10.73;;;9.57;;
3704;SDS011;1868;48.918;9.438;2023-04-29T14:53:46;11.37;;;9.20;;
3704;SDS011;1868;48.918;9.438;2023-04-29T14:56:33;8.97;;;6.50;;
3704;SDS011;1868;48.918;9.438;2023-04-29T14:59:15;9.70;;;8.03;;
3704;SDS011;1868;48.918;9.438;2023-04-29T15:23:26;8.70;;;7.77;;
3704;SDS011;1868;48.918;9.438;2023-04-29T15:25:58;12.67;;;8.33;;
3704;SDS011;1868;48.918;9.438;2023-04-29T15:28:28;8.93;;;7.47;;
3704;SDS011;1868;48.918;9.438;2023-04-29T15:31:12;9.60;;;7.90;;
3704;SDS011;1868;48.918;9.438;2023-04-29T15:34:05;7.90;;;7.10;;
3704;SDS011;1868;48.918;9.438;2023-04-29T15:39:40;6.70;;;6.00;;
3704;SDS011;1868;48.918;9.438;2023-04-29T15:42:13;8.70;;;7.60;;
3704;SDS011;1868;48.918;9.438;2023-04-29T15:44:43;7.40;;;6.20;;
3704;SDS011;1868;48.918;9.438;2023-04-29T15:47:15;8.20;;;6.57;;
3704;SDS011;1868;48.918;9.438;2023-04-29T15:49:45;7.17;;;6.30;;
3704;SDS011;1868;48.918;9.438;2023-04-29T15:52:15;8.07;;;6.20;;
3704;SDS011;1868;48.918;9.438;2023-04-29T15:54:46;12.07;;;6.30;;
3704;SDS011;1868;48.918;9.438;2023-04-29T15:57:21;10.83;;;6.30;;
3704;SDS011;1868;48.918;9.438;2023-04-29T16:09:25;3.20;;;2.90;;
3704;SDS011;1868;48.918;9.438;2023-04-29T16:11:55;3.93;;;3.63;;
3704;SDS011;1868;48.918;9.438;2023-04-29T16:14:24;6.40;;;3.50;;
3704;SDS011;1868;48.918;9.438;2023-04-29T16:16:54;5.33;;;3.27;;
3704;SDS011;1868;48.918;9.438;2023-04-29T16:19:27;6.10;;;4.17;;
3704;SDS011;1868;48.918;9.438;2023-04-29T16:21:56;3.97;;;3.60;;
3704;SDS011;1868;48.918;9.438;2023-04-29T16:24:26;5.70;;;3.77;;
3704;SDS011;1868;48.918;9.438;2023-04-29T16:27:00;5.77;;;5.20;;
3704;SDS011;1868;48.918;9.438;2023-04-29T16:29:28;6.60;;;4.00;;
3704;SDS011;1868;48.918;9.438;2023-04-29T16:31:58;4.23;;;3.20;;
3704;SDS011;1868;48.918;9.438;2023-04-29T16:34:27;3.57;;;3.23;;
3704;SDS011;1868;48.918;9.438;2023-04-29T16:36:57;3.97;;;3.10;;
3704;SDS011;1868;48.918;9.438;2023-04-29T16:39:26;4.80;;;4.40;;
3704;SDS011;1868;48.918;9.438;2023-04-29T16:41:55;4.50;;;3.50;;
3704;SDS011;1868;48.918;9.438;2023-04-29T16:44:26;3.23;;;3.03;;
3704;SDS011;1868;48.918;9.438;2023-04-29T16:46:56;4.37;;;3.93;;
3704;SDS011;1868;48.918;9.438;2023-04-29T16:49:26;3.80;;;3.50;;
3704;SDS011;1868;48.918;9.438;2023-04-29T16:51:57;5.07;;;4.57;;
3704;SDS011;1868;48.918;9.438;2023-04-29T16:54:26;3.43;;;3.13;;
3704;SDS011;1868;48.918;9.438;2023-04-29T16:56:57;3.80;;;3.27;;
3704;SDS011;1868;48.918;9.438;2023-04-29T16:59:29;5.80;;;4.43;;
3704;SDS011;1868;48.918;9.438;2023-04-29T17:02:00;4.20;;;3.80;;
3704;SDS011;1868;48.918;9.438;2023-04-29T17:04:32;5.60;;;3.83;;
3704;SDS011;1868;48.918;9.438;2023-04-29T17:07:01;3.80;;;3.50;;
3704;SDS011;1868;48.918;9.438;2023-04-29T17:09:30;3.50;;;3.20;;
3704;SDS011;1868;48.918;9.438;2023-04-29T17:12:01;3.50;;;3.20;;
3704;SDS011;1868;48.918;9.438;2023-04-29T17:14:34;4.77;;;4.37;;
3704;SDS011;1868;48.918;9.438;2023-04-29T17:17:05;7.30;;;3.90;;
3704;SDS011;1868;48.918;9.438;2023-04-29T17:19:35;4.50;;;4.10;;
3704;SDS011;1868;48.918;9.438;2023-04-29T17:22:06;4.07;;;3.43;;
3704;SDS011;1868;48.918;9.438;2023-04-29T17:24:39;3.90;;;3.53;;
3704;SDS011;1868;48.918;9.438;2023-04-29T17:40:40;6.10;;;4.20;;
3704;SDS011;1868;48.918;9.438;2023-04-29T17:43:09;4.83;;;4.40;;
3704;SDS011;1868;48.918;9.438;2023-04-29T17:45:39;4.97;;;4.47;;
3704;SDS011;1868;48.918;9.438;2023-04-29T17:48:09;10.30;;;3.83;;
3704;SDS011;1868;48.918;9.438;2023-04-29T17:50:40;4.57;;;4.13;;
3704;SDS011;1868;48.918;9.438;2023-04-29T17:53:25;5.00;;;4.53;;
3704;SDS011;1868;48.918;9.438;2023-04-29T17:55:57;5.50;;;5.00;;
3704;SDS011;1868;48.918;9.438;2023-04-29T17:58:27;5.47;;;4.97;;
3704;SDS011;1868;48.918;9.438;2023-04-29T18:00:57;6.10;;;5.50;;
3704;SDS011;1868;48.918;9.438;2023-04-29T18:03:27;6.20;;;5.37;;
3704;SDS011;1868;48.918;9.438;2023-04-29T18:05:57;6.73;;;5.40;;
3704;SDS011;1868;48.918;9.438;2023-04-29T18:08:28;4.67;;;4.07;;
3704;SDS011;1868;48.918;9.438;2023-04-29T18:10:59;7.70;;;5.03;;
3704;SDS011;1868;48.918;9.438;2023-04-29T18:13:28;4.40;;;4.00;;
3704;SDS011;1868;48.918;9.438;2023-04-29T18:15:58;4.30;;;3.90;;
3704;SDS011;1868;48.918;9.438;2023-04-29T18:18:27;4.50;;;4.10;;
3704;SDS011;1868;48.918;9.438;2023-04-29T18:20:59;3.70;;;3.40;;
3704;SDS011;1868;48.918;9.438;2023-04-29T18:23:35;4.47;;;4.07;;
3704;SDS011;1868;48.918;9.438;2023-04-29T18:39:24;3.63;;;3.33;;
3704;SDS011;1868;48.918;9.438;2023-04-29T18:58:30;5.43;;;4.60;;
3704;SDS011;1868;48.918;9.438;2023-04-29T19:01:00;6.00;;;5.00;;
3704;SDS011;1868;48.918;9.438;2023-04-29T19:03:39;5.63;;;4.93;;
3704;SDS011;1868;48.918;9.438;2023-04-29T21:14:14;2.93;;;2.73;;
3704;SDS011;1868;48.918;9.438;2023-04-29T21:16:45;3.33;;;2.93;;
3704;SDS011;1868;48.918;9.438;2023-04-29T21:19:28;3.00;;;2.80;;
3704;SDS011;1868;48.918;9.438;2023-04-29T21:28:59;5.20;;;4.67;;
3704;SDS011;1868;48.918;9.438;2023-04-29T21:31:33;5.03;;;3.93;;
3704;SDS011;1868;48.918;9.438;2023-04-29T21:52:04;2.90;;;2.70;;
3704;SDS011;1868;48.918;9.438;2023-04-29T21:55:09;3.90;;;3.10;;
3704;SDS011;1868;48.918;9.438;2023-04-29T21:57:43;2.93;;;2.70;;
3704;SDS011;1868;48.918;9.438;2023-04-29T22:42:29;8.97;;;5.33;;
3704;SDS011;1868;48.918;9.438;2023-04-29T22:45:01;5.63;;;5.13;;
3704;SDS011;1868;48.918;9.438;2023-04-29T23:32:41;8.53;;;6.80;;
3704;SDS011;1868;48.918;9.438;2023-04-29T23:35:14;8.60;;;7.13;;
3704;SDS011;1868;48.918;9.438;2023-04-29T23:37:44;8.90;;;7.17;;
3704;SDS011;1868;48.918;9.438;2023-04-29T23:50:19;10.40;;;7.80;;
3704;SDS011;1868;48.918;9.438;2023-04-29T23:52:49;9.93;;;7.57;;
3704;SDS011;1868;48.918;9.438;2023-04-29T23:55:34;9.07;;;7.50;;
